Time;durP1;ratioP1;P1;durP2;ratioP2;P2;SDS_P1;SDS_P2;PMS_P1;PMS_P2;Temp;Humidity;BMP_temperature;BMP_pressure;BME280_temperature;BME280_humidity;BME280_pressure;Samples;Min_cycle;Max_cycle;Signal;HPM_P1;HPM_P2
2023/03/03 00:01:24;;;;;;;25.02;8.90;;;5.30;78.70;;;;;;5114457;28;20024;-73
2023/03/03 00:03:51;;;;;;;24.95;9.15;;;5.30;78.30;;;;;;5114402;28;20021;-73
2023/03/03 00:06:17;;;;;;;26.67;10.57;;;5.40;78.00;;;;;;5114338;28;20098;-73
2023/03/03 00:08:42;;;;;;;22.35;9.30;;;5.40;78.10;;;;;;5114183;28;20093;-73
2023/03/03 00:11:09;;;;;;;21.65;9.45;;;5.30;78.30;;;;;;5113312;28;20032;-73
2023/03/03 00:13:47;;;;;;;23.27;9.52;;;5.20;78.60;;;;;;5114212;28;20364;-73
2023/03/03 00:16:23;;;;;;;24.08;9.60;;;5.10;78.70;;;;;;5114372;28;20028;-73
2023/03/03 00:18:49;;;;;;;27.67;9.88;;;5.10;78.90;;;;;;5114298;28;20031;-74
2023/03/03 00:21:29;;;;;;;25.52;11.02;;;5.00;80.30;;;;;;5114074;28;20076;-73
2023/03/03 00:24:17;;;;;;;25.00;9.23;;;4.80;81.10;;;;;;5113094;28;20035;-73
2023/03/03 00:26:51;;;;;;;26.13;9.52;;;4.70;82.20;;;;;;5113950;28;20054;-73
2023/03/03 00:29:26;;;;;;;23.92;10.00;;;4.70;82.10;;;;;;5113900;28;20029;-73
2023/03/03 00:31:52;;;;;;;27.60;10.35;;;4.70;82.20;;;;;;5113750;28;20047;-74
2023/03/03 00:34:18;;;;;;;25.73;9.00;;;4.80;82.10;;;;;;5113949;28;20020;-73
2023/03/03 00:36:45;;;;;;;24.40;9.35;;;4.90;81.90;;;;;;5113847;28;20076;-73
2023/03/03 00:39:30;;;;;;;24.60;10.05;;;4.80;82.50;;;;;;5113809;28;20028;-73
2023/03/03 00:41:59;;;;;;;26.23;9.40;;;4.60;83.00;;;;;;5112754;28;20053;-73
2023/03/03 00:44:33;;;;;;;22.85;8.65;;;4.50;83.20;;;;;;5113854;28;20020;-73
2023/03/03 00:47:27;;;;;;;24.98;9.73;;;4.50;83.90;;;;;;5112811;28;20028;-73
2023/03/03 00:50:20;;;;;;;22.90;9.52;;;4.50;83.90;;;;;;5113637;28;20032;-73
2023/03/03 00:53:09;;;;;;;21.88;9.13;;;4.50;84.20;;;;;;5100598;28;20028;-73
2023/03/03 00:55:35;;;;;;;25.38;8.68;;;4.50;83.80;;;;;;5113645;28;20024;-73
2023/03/03 00:58:01;;;;;;;24.02;9.10;;;4.50;83.90;;;;;;5113597;28;20028;-73
2023/03/03 01:00:26;;;;;;;23.05;8.15;;;4.50;83.70;;;;;;5113558;28;20020;-73
2023/03/03 01:02:52;;;;;;;21.05;8.60;;;4.60;83.90;;;;;;5113688;28;20054;-74
2023/03/03 01:05:18;;;;;;;22.15;8.65;;;4.60;84.00;;;;;;5113470;28;20083;-73
2023/03/03 01:07:44;;;;;;;21.25;7.85;;;4.50;84.40;;;;;;5113405;28;20020;-73
2023/03/03 01:10:10;;;;;;;24.52;9.70;;;4.40;84.40;;;;;;5116832;28;20111;-73
2023/03/03 01:12:37;;;;;;;20.27;7.70;;;4.50;84.40;;;;;;5117690;28;20058;-73
2023/03/03 01:15:08;;;;;;;24.00;8.98;;;4.40;85.00;;;;;;5117640;28;20016;-73
2023/03/03 01:17:34;;;;;;;23.02;7.50;;;4.30;84.50;;;;;;5117645;28;20035;-73
2023/03/03 01:20:00;;;;;;;23.20;8.80;;;4.20;85.40;;;;;;5099687;28;20039;-73
2023/03/03 01:22:26;;;;;;;23.55;8.60;;;4.10;86.30;;;;;;5117503;28;20016;-73
2023/03/03 01:24:51;;;;;;;23.83;8.40;;;4.10;86.10;;;;;;5116407;28;20044;-73
2023/03/03 01:27:17;;;;;;;20.00;8.32;;;4.20;85.70;;;;;;5116397;28;20032;-73
2023/03/03 01:29:43;;;;;;;24.02;8.85;;;4.20;86.70;;;;;;5116302;28;20039;-73
2023/03/03 01:32:08;;;;;;;23.15;8.48;;;4.00;87.00;;;;;;5116269;28;20040;-73
2023/03/03 01:34:34;;;;;;;19.92;8.35;;;4.10;86.20;;;;;;5117280;28;20028;-73
2023/03/03 01:36:59;;;;;;;26.05;8.68;;;4.10;85.90;;;;;;5116158;28;20025;-73
2023/03/03 01:39:25;;;;;;;21.13;7.97;;;4.20;86.00;;;;;;5116281;28;20024;-73
2023/03/03 01:41:51;;;;;;;26.15;8.52;;;4.30;85.70;;;;;;5116183;28;20031;-73
2023/03/03 01:44:17;;;;;;;18.38;8.07;;;4.20;86.30;;;;;;5117109;28;20024;-73
2023/03/03 01:47:02;;;;;;;20.15;8.55;;;4.30;85.70;;;;;;5117049;28;20070;-73
2023/03/03 01:49:43;;;;;;;22.95;9.07;;;4.40;85.40;;;;;;5116959;28;20084;-73
2023/03/03 01:52:33;;;;;;;18.63;7.38;;;4.40;85.10;;;;;;5117005;28;20020;-73
2023/03/03 01:55:03;;;;;;;28.00;9.25;;;4.50;85.00;;;;;;5116959;28;20028;-73
2023/03/03 01:57:35;;;;;;;24.70;8.20;;;4.50;85.20;;;;;;5116815;28;20028;-73
2023/03/03 02:00:03;;;;;;;23.45;8.18;;;4.40;85.30;;;;;;5117005;28;20024;-73
2023/03/03 02:02:30;;;;;;;22.90;8.40;;;4.50;85.20;;;;;;5116638;28;20059;-73
2023/03/03 02:04:56;;;;;;;22.25;8.23;;;4.50;85.10;;;;;;5115812;28;20047;-73
2023/03/03 02:07:24;;;;;;;22.00;8.45;;;4.50;84.70;;;;;;5116653;28;20031;-73
2023/03/03 02:09:58;;;;;;;24.20;8.80;;;4.60;84.70;;;;;;5116488;28;20067;-73
2023/03/03 02:12:51;;;;;;;25.58;9.07;;;4.50;84.90;;;;;;5116556;28;20026;-73
2023/03/03 02:15:34;;;;;;;22.27;8.05;;;4.50;85.10;;;;;;5116487;28;20020;-73
2023/03/03 02:18:20;;;;;;;22.95;8.60;;;4.50;85.90;;;;;;5116647;28;20024;-73
2023/03/03 02:21:08;;;;;;;23.77;8.85;;;4.20;86.30;;;;;;5116061;28;20036;-73
2023/03/03 02:23:46;;;;;;;30.60;9.40;;;4.20;86.50;;;;;;5116548;28;20035;-73
2023/03/03 02:26:15;;;;;;;26.13;9.25;;;4.10;86.60;;;;;;5116353;28;20016;-73
2023/03/03 02:28:41;;;;;;;22.45;8.90;;;4.10;86.80;;;;;;5116185;28;20028;-73
2023/03/03 02:31:11;;;;;;;22.85;8.93;;;4.10;86.50;;;;;;5116144;28;20031;-73
2023/03/03 02:33:39;;;;;;;30.63;9.07;;;4.20;86.80;;;;;;5116169;28;20030;-73
2023/03/03 02:36:05;;;;;;;27.98;9.35;;;4.10;86.80;;;;;;5116117;28;20040;-73
2023/03/03 02:38:42;;;;;;;23.52;9.13;;;4.20;86.70;;;;;;5116069;28;20037;-73
2023/03/03 02:41:23;;;;;;;28.25;9.75;;;4.20;86.70;;;;;;5116005;28;20052;-73
2023/03/03 02:44:04;;;;;;;26.50;8.77;;;4.20;86.70;;;;;;5114990;28;20028;-73
2023/03/03 02:46:34;;;;;;;22.63;8.10;;;4.20;86.80;;;;;;5115906;28;20027;-73
2023/03/03 02:49:00;;;;;;;27.45;9.35;;;4.20;86.90;;;;;;5114811;28;20115;-74
2023/03/03 02:51:25;;;;;;;27.42;10.48;;;4.20;86.80;;;;;;5114804;28;20031;-73
2023/03/03 02:53:51;;;;;;;28.88;9.27;;;4.20;86.70;;;;;;5115878;28;20024;-73
2023/03/03 02:56:17;;;;;;;26.40;9.98;;;4.20;86.40;;;;;;5115744;28;20032;-73
2023/03/03 02:58:42;;;;;;;24.83;8.57;;;4.20;86.60;;;;;;5114634;28;20035;-73
2023/03/03 03:01:08;;;;;;;22.98;7.68;;;4.20;86.70;;;;;;5115634;28;20046;-74
2023/03/03 03:03:34;;;;;;;22.13;8.18;;;4.10;86.70;;;;;;5115571;28;20036;-73
2023/03/03 03:05:59;;;;;;;22.05;8.48;;;4.10;86.40;;;;;;5115540;28;20059;-73
2023/03/03 03:08:25;;;;;;;24.60;8.55;;;4.00;87.30;;;;;;5114519;28;20043;-73
2023/03/03 03:10:50;;;;;;;24.67;9.95;;;4.00;87.60;;;;;;5115439;28;20039;-74
2023/03/03 03:13:16;;;;;;;21.90;8.32;;;3.90;87.60;;;;;;5115339;28;20032;-73
2023/03/03 03:15:45;;;;;;;26.58;8.63;;;3.90;88.30;;;;;;5115395;28;20020;-73
2023/03/03 03:18:11;;;;;;;23.25;8.18;;;3.80;88.30;;;;;;5115310;28;20039;-73
2023/03/03 03:20:38;;;;;;;22.98;8.38;;;3.80;88.00;;;;;;5114297;28;20033;-73
2023/03/03 03:23:05;;;;;;;21.52;8.30;;;3.80;88.60;;;;;;5115183;28;20076;-73
2023/03/03 03:25:30;;;;;;;19.23;7.40;;;3.70;89.40;;;;;;5115165;28;20031;-73
2023/03/03 03:27:56;;;;;;;23.30;8.25;;;3.60;90.00;;;;;;5114762;28;20028;-73
2023/03/03 03:30:21;;;;;;;20.05;8.07;;;3.70;89.30;;;;;;5114200;28;20024;-73
2023/03/03 03:32:47;;;;;;;25.88;9.50;;;3.80;88.80;;;;;;5113445;28;20074;-73
2023/03/03 03:35:13;;;;;;;21.17;7.78;;;3.90;88.60;;;;;;5114963;28;20028;-73
2023/03/03 03:37:39;;;;;;;25.08;8.77;;;3.90;88.30;;;;;;5113901;28;20028;-74
2023/03/03 03:40:05;;;;;;;23.60;8.13;;;4.00;87.80;;;;;;5097046;28;20095;-73
2023/03/03 03:42:31;;;;;;;19.60;7.65;;;4.10;87.90;;;;;;5114847;28;20025;-73
2023/03/03 03:44:57;;;;;;;20.92;8.73;;;4.10;87.70;;;;;;5114760;28;20045;-73
2023/03/03 03:47:22;;;;;;;23.67;8.80;;;4.20;87.40;;;;;;5114725;28;20095;-73
2023/03/03 03:49:48;;;;;;;23.48;8.90;;;4.20;87.30;;;;;;5114604;28;20111;-73
2023/03/03 03:52:14;;;;;;;25.83;9.05;;;4.10;87.80;;;;;;5114781;28;20024;-73
2023/03/03 03:54:39;;;;;;;22.10;8.30;;;4.10;87.80;;;;;;5114596;28;20075;-73
2023/03/03 03:57:05;;;;;;;25.27;8.65;;;4.10;87.30;;;;;;5114559;28;20017;-73
2023/03/03 03:59:31;;;;;;;24.98;8.95;;;4.10;87.60;;;;;;5113547;28;20456;-73
2023/03/03 04:01:56;;;;;;;27.33;8.57;;;4.20;87.40;;;;;;5113506;28;20038;-73
2023/03/03 04:04:22;;;;;;;22.90;9.00;;;4.00;88.40;;;;;;5114418;28;20185;-73
2023/03/03 04:06:48;;;;;;;22.67;7.75;;;4.00;88.20;;;;;;5113610;28;20036;-73
2023/03/03 04:09:14;;;;;;;27.08;8.70;;;4.00;88.20;;;;;;5114168;28;20024;-73
2023/03/03 04:11:40;;;;;;;22.20;7.55;;;3.90;88.30;;;;;;5114302;28;20016;-73
2023/03/03 04:14:06;;;;;;;26.45;8.13;;;4.00;88.20;;;;;;5114215;28;20035;-73
2023/03/03 04:16:32;;;;;;;27.40;9.25;;;3.90;88.40;;;;;;5114331;28;20035;-73
2023/03/03 04:18:57;;;;;;;20.50;7.07;;;4.00;88.10;;;;;;5114162;28;20028;-73
2023/03/03 04:21:24;;;;;;;19.35;7.70;;;3.90;87.90;;;;;;5114106;28;20051;-73
2023/03/03 04:23:49;;;;;;;22.73;7.28;;;3.90;88.20;;;;;;5114065;28;20035;-73
2023/03/03 04:26:15;;;;;;;21.73;7.53;;;4.00;87.90;;;;;;5112934;28;20104;-73
2023/03/03 04:28:41;;;;;;;25.75;8.15;;;3.90;88.20;;;;;;5113922;28;20091;-73
2023/03/03 04:31:06;;;;;;;24.42;7.82;;;4.00;88.00;;;;;;5113759;28;20484;-73
2023/03/03 04:33:32;;;;;;;25.00;8.38;;;4.00;88.30;;;;;;5113970;28;20034;-74
2023/03/03 04:35:58;;;;;;;23.15;7.60;;;4.10;88.20;;;;;;5113917;28;20484;-73
2023/03/03 04:38:23;;;;;;;23.80;7.50;;;4.10;88.10;;;;;;5112879;28;20035;-73
2023/03/03 04:40:49;;;;;;;25.98;8.35;;;4.10;87.80;;;;;;5113821;28;20047;-73
2023/03/03 04:43:15;;;;;;;25.65;7.63;;;4.10;88.00;;;;;;5111928;28;20032;-73
2023/03/03 04:45:40;;;;;;;23.95;8.90;;;4.10;88.20;;;;;;5113882;28;20024;-73
2023/03/03 04:48:06;;;;;;;24.75;7.43;;;4.10;88.20;;;;;;5113612;28;20073;-73
2023/03/03 04:50:33;;;;;;;22.27;7.65;;;4.00;88.60;;;;;;5112642;28;20035;-73
2023/03/03 04:52:59;;;;;;;29.05;8.30;;;4.10;88.50;;;;;;5113797;28;20020;-73
2023/03/03 04:55:24;;;;;;;27.80;9.55;;;4.10;88.30;;;;;;5112596;28;20054;-74
2023/03/03 04:57:50;;;;;;;28.40;8.90;;;4.10;88.60;;;;;;5112688;28;20032;-73
2023/03/03 05:00:16;;;;;;;21.40;7.88;;;4.00;88.90;;;;;;5112616;28;20036;-73
2023/03/03 05:02:42;;;;;;;25.33;8.85;;;4.00;89.30;;;;;;5113571;28;20039;-73
2023/03/03 05:05:12;;;;;;;21.33;8.45;;;4.00;88.90;;;;;;5113490;28;20087;-73
2023/03/03 05:07:38;;;;;;;24.42;7.88;;;4.10;88.60;;;;;;5113542;28;20016;-73
2023/03/03 05:10:04;;;;;;;24.27;7.88;;;4.10;88.90;;;;;;5112291;28;20031;-73
2023/03/03 05:12:30;;;;;;;24.92;7.60;;;4.00;88.80;;;;;;5113621;28;20024;-73
2023/03/03 05:14:55;;;;;;;25.40;7.20;;;4.10;88.70;;;;;;5113472;28;20077;-73
2023/03/03 05:17:21;;;;;;;25.27;8.45;;;4.00;89.20;;;;;;5112522;28;20043;-73
2023/03/03 05:19:47;;;;;;;20.85;7.28;;;4.00;89.00;;;;;;5095527;28;20027;-73
2023/03/03 05:22:12;;;;;;;22.85;7.18;;;4.00;88.80;;;;;;5112509;28;20033;-73
2023/03/03 05:24:38;;;;;;;25.13;8.35;;;4.00;89.40;;;;;;5112307;28;20034;-73
2023/03/03 05:27:04;;;;;;;22.13;8.10;;;4.00;89.50;;;;;;5112408;28;20052;-73
2023/03/03 05:29:32;;;;;;;25.83;8.25;;;4.00;88.90;;;;;;5112221;28;20032;-73
2023/03/03 05:31:57;;;;;;;25.65;8.02;;;4.10;89.10;;;;;;5113099;28;20040;-73
2023/03/03 05:34:23;;;;;;;27.90;7.90;;;4.10;89.00;;;;;;5113223;28;20028;-73
2023/03/03 05:36:50;;;;;;;29.58;7.43;;;4.00;88.90;;;;;;5113222;28;20027;-74
2023/03/03 05:39:15;;;;;;;25.90;7.10;;;4.00;88.80;;;;;;5113204;28;20028;-74
2023/03/03 05:41:41;;;;;;;26.42;8.98;;;3.90;88.90;;;;;;5112166;28;20387;-74
2023/03/03 05:44:07;;;;;;;20.95;7.43;;;3.90;89.00;;;;;;5113166;28;20029;-73
2023/03/03 05:46:33;;;;;;;20.52;7.68;;;4.00;89.80;;;;;;5113165;28;20599;-74
2023/03/03 05:48:58;;;;;;;26.67;8.88;;;4.00;88.70;;;;;;5113036;28;20032;-74
2023/03/03 05:51:24;;;;;;;23.67;8.68;;;4.00;89.10;;;;;;5113084;28;20032;-73
2023/03/03 05:53:50;;;;;;;29.75;9.00;;;4.00;88.90;;;;;;5113023;28;20029;-74
2023/03/03 05:56:16;;;;;;;25.42;8.18;;;4.00;88.90;;;;;;5116308;28;20048;-74
2023/03/03 05:58:41;;;;;;;26.33;7.85;;;4.00;89.00;;;;;;5116871;28;20024;-73
2023/03/03 06:01:07;;;;;;;24.10;8.52;;;4.10;88.90;;;;;;5116682;28;20036;-74
2023/03/03 06:03:33;;;;;;;23.65;8.13;;;4.10;88.70;;;;;;5115806;28;20088;-73
2023/03/03 06:05:58;;;;;;;26.58;8.48;;;4.10;88.30;;;;;;5115718;28;20024;-73
2023/03/03 06:08:24;;;;;;;22.92;7.70;;;4.10;88.50;;;;;;5115596;28;20036;-73
2023/03/03 06:10:50;;;;;;;23.25;8.98;;;4.10;88.40;;;;;;5116593;28;20024;-73
2023/03/03 06:13:15;;;;;;;24.38;9.30;;;4.20;88.80;;;;;;5115546;28;20054;-73
2023/03/03 06:15:41;;;;;;;23.50;7.85;;;4.20;88.50;;;;;;5116533;28;20027;-73
2023/03/03 06:18:07;;;;;;;22.35;7.60;;;4.20;88.70;;;;;;5116432;28;20035;-73
2023/03/03 06:20:34;;;;;;;23.90;8.20;;;4.20;88.70;;;;;;5116454;28;20024;-73
2023/03/03 06:23:00;;;;;;;21.45;7.55;;;4.10;88.80;;;;;;5116361;28;20030;-73
2023/03/03 06:25:26;;;;;;;25.60;8.40;;;4.10;88.90;;;;;;5116340;28;20024;-73
2023/03/03 06:27:52;;;;;;;24.20;7.97;;;4.20;88.80;;;;;;5116324;28;20020;-73
2023/03/03 06:30:18;;;;;;;22.48;7.97;;;4.10;89.00;;;;;;5116261;28;20036;-73
2023/03/03 06:32:44;;;;;;;26.83;8.73;;;4.10;88.80;;;;;;5116010;28;20055;-73
2023/03/03 06:35:10;;;;;;;22.52;8.23;;;4.20;88.80;;;;;;5116167;28;20024;-74
2023/03/03 06:37:36;;;;;;;21.27;8.30;;;4.20;88.90;;;;;;5115072;28;20020;-73
2023/03/03 06:40:03;;;;;;;23.35;8.23;;;4.20;89.20;;;;;;5115058;28;20027;-73
2023/03/03 06:42:29;;;;;;;23.58;7.95;;;4.20;89.00;;;;;;5115057;28;20117;-73
2023/03/03 06:44:54;;;;;;;20.55;7.88;;;4.20;89.30;;;;;;5115024;28;20035;-73
2023/03/03 06:47:20;;;;;;;22.70;8.00;;;4.20;89.40;;;;;;5116029;28;20032;-73
2023/03/03 06:49:46;;;;;;;25.02;7.88;;;4.30;89.10;;;;;;5115785;28;20028;-73
2023/03/03 06:52:16;;;;;;;25.00;7.68;;;4.30;89.10;;;;;;5115852;28;20024;-73
2023/03/03 06:54:41;;;;;;;24.92;7.95;;;4.30;88.70;;;;;;5115980;28;20035;-73
2023/03/03 06:57:25;;;;;;;23.58;8.57;;;4.30;89.10;;;;;;5115725;28;20028;-75
2023/03/03 06:59:53;;;;;;;26.75;8.30;;;4.30;88.60;;;;;;5115722;28;20105;-74
2023/03/03 07:02:20;;;;;;;21.63;8.00;;;4.30;88.60;;;;;;5115626;28;20050;-73
2023/03/03 07:04:46;;;;;;;21.15;7.53;;;4.30;88.90;;;;;;5115571;28;20024;-73
2023/03/03 07:07:25;;;;;;;20.27;7.15;;;4.20;89.60;;;;;;5114614;28;20039;-74
2023/03/03 07:09:55;;;;;;;23.10;8.27;;;4.20;89.40;;;;;;5115351;28;20032;-73
2023/03/03 07:12:25;;;;;;;20.40;7.80;;;4.30;89.10;;;;;;5115451;28;20066;-73
2023/03/03 07:14:58;;;;;;;22.83;8.57;;;4.30;89.20;;;;;;5115474;28;20027;-73
2023/03/03 07:17:24;;;;;;;23.13;7.60;;;4.30;89.10;;;;;;5115517;28;20024;-74
2023/03/03 07:19:51;;;;;;;19.35;6.82;;;4.30;89.30;;;;;;5114245;28;20016;-73
2023/03/03 07:22:19;;;;;;;22.58;7.05;;;4.40;88.90;;;;;;5115263;28;20024;-73
2023/03/03 07:24:49;;;;;;;19.25;8.30;;;4.40;88.80;;;;;;5115301;28;20079;-73
2023/03/03 07:27:18;;;;;;;22.75;7.22;;;4.50;88.90;;;;;;5115193;28;20016;-73
2023/03/03 07:29:47;;;;;;;18.45;7.18;;;4.50;88.70;;;;;;5115039;28;20051;-73
2023/03/03 07:32:45;;;;;;;22.45;8.48;;;4.50;88.60;;;;;;5114840;28;20070;-73
2023/03/03 07:35:28;;;;;;;25.02;8.05;;;4.60;88.40;;;;;;5115171;28;20027;-74
2023/03/03 07:37:54;;;;;;;22.58;7.13;;;4.60;88.20;;;;;;5113961;28;20050;-74
2023/03/03 07:40:36;;;;;;;24.80;7.97;;;4.60;88.10;;;;;;5113841;28;20036;-73
2023/03/03 07:43:27;;;;;;;25.23;8.00;;;4.60;88.30;;;;;;5114841;28;20084;-73
2023/03/03 07:46:00;;;;;;;23.48;7.60;;;4.60;88.10;;;;;;5114962;28;20053;-73
2023/03/03 07:48:34;;;;;;;23.17;8.32;;;4.60;88.00;;;;;;5114843;28;20032;-74
2023/03/03 07:51:10;;;;;;;18.27;7.00;;;4.60;87.80;;;;;;5114715;28;20017;-73
2023/03/03 07:53:36;;;;;;;21.70;7.72;;;4.70;87.60;;;;;;5114631;28;20023;-73
2023/03/03 07:56:18;;;;;;;21.92;7.35;;;4.70;87.50;;;;;;5113580;28;20034;-73
2023/03/03 07:58:44;;;;;;;18.90;7.18;;;4.70;87.50;;;;;;5114603;28;20020;-73
2023/03/03 08:01:39;;;;;;;20.75;6.93;;;4.70;87.40;;;;;;5113525;28;20054;-73
2023/03/03 08:04:16;;;;;;;19.55;6.65;;;4.60;87.90;;;;;;5113492;28;20050;-74
2023/03/03 08:06:46;;;;;;;18.65;6.57;;;4.70;87.60;;;;;;5114443;28;20024;-73
2023/03/03 08:09:11;;;;;;;17.65;6.55;;;4.60;87.50;;;;;;5113156;28;20031;-73
2023/03/03 08:11:49;;;;;;;20.42;7.57;;;4.60;88.00;;;;;;5114264;28;20024;-73
2023/03/03 08:14:19;;;;;;;21.88;6.97;;;4.60;88.00;;;;;;5114299;28;20043;-73
2023/03/03 08:16:45;;;;;;;20.17;6.40;;;4.60;87.80;;;;;;5114440;28;20016;-73
2023/03/03 08:19:12;;;;;;;20.92;7.32;;;4.70;87.90;;;;;;5113170;28;20038;-73
2023/03/03 08:21:38;;;;;;;21.73;7.30;;;4.70;88.20;;;;;;5114127;28;20020;-73
2023/03/03 08:24:04;;;;;;;18.45;7.15;;;4.70;87.70;;;;;;5114176;28;20081;-73
2023/03/03 08:26:30;;;;;;;24.33;7.28;;;4.70;88.20;;;;;;5114057;28;20039;-74
2023/03/03 08:28:55;;;;;;;19.00;7.35;;;4.70;87.90;;;;;;5113930;28;20028;-73
2023/03/03 08:31:21;;;;;;;22.20;7.78;;;4.80;87.70;;;;;;5095788;28;20043;-73
2023/03/03 08:33:47;;;;;;;21.50;7.32;;;4.80;87.70;;;;;;5114109;28;20031;-74
2023/03/03 08:36:13;;;;;;;18.60;7.53;;;4.80;87.90;;;;;;5096017;28;20027;-73
2023/03/03 08:38:39;;;;;;;23.52;8.57;;;4.80;87.70;;;;;;5113860;28;20036;-73
2023/03/03 08:41:05;;;;;;;18.23;7.18;;;4.90;87.60;;;;;;5113840;28;20036;-73
2023/03/03 08:43:31;;;;;;;17.48;6.43;;;4.90;87.50;;;;;;5112754;28;20039;-73
2023/03/03 08:45:59;;;;;;;23.30;7.75;;;4.90;87.90;;;;;;5112775;28;20017;-73
2023/03/03 08:48:27;;;;;;;20.77;6.97;;;4.90;87.70;;;;;;5113634;28;20028;-74
2023/03/03 08:50:53;;;;;;;18.80;6.68;;;4.80;87.90;;;;;;5113668;28;20024;-73
2023/03/03 08:53:19;;;;;;;15.32;6.15;;;4.80;87.50;;;;;;5113649;28;20052;-73
2023/03/03 08:55:46;;;;;;;17.52;6.53;;;4.90;87.50;;;;;;5113506;28;20024;-73
2023/03/03 08:58:13;;;;;;;17.70;6.15;;;5.00;87.20;;;;;;5113573;28;20026;-73
2023/03/03 09:00:39;;;;;;;15.23;6.20;;;5.00;87.00;;;;;;5113569;28;20021;-73
2023/03/03 09:03:06;;;;;;;19.25;6.10;;;5.10;86.80;;;;;;5095795;28;20042;-73
2023/03/03 09:05:33;;;;;;;18.63;6.68;;;5.10;86.60;;;;;;5112518;28;20020;-73
2023/03/03 09:07:59;;;;;;;18.45;6.57;;;5.10;86.50;;;;;;5113416;28;20024;-73
2023/03/03 09:10:29;;;;;;;17.90;6.45;;;5.20;86.50;;;;;;5113393;28;20016;-73
2023/03/03 09:12:57;;;;;;;14.60;5.60;;;5.10;86.30;;;;;;5113422;28;20043;-73
2023/03/03 09:15:32;;;;;;;15.13;5.40;;;5.10;86.30;;;;;;5113475;28;20028;-73
2023/03/03 09:18:08;;;;;;;17.80;6.30;;;5.10;86.70;;;;;;5113426;28;20028;-73
2023/03/03 09:20:57;;;;;;;16.50;6.40;;;5.10;86.70;;;;;;5112404;28;20020;-74
2023/03/03 09:23:40;;;;;;;18.73;6.03;;;5.10;86.50;;;;;;5113125;28;20035;-74
2023/03/03 09:26:28;;;;;;;16.55;6.18;;;5.20;86.40;;;;;;5113467;28;20016;-73
2023/03/03 09:29:00;;;;;;;14.27;5.97;;;5.20;86.30;;;;;;5113360;28;20050;-73
2023/03/03 09:31:37;;;;;;;16.88;6.00;;;5.20;86.30;;;;;;5116883;28;20096;-73
2023/03/03 09:34:17;;;;;;;17.55;6.00;;;5.20;86.00;;;;;;5117337;28;20540;-73
2023/03/03 09:36:43;;;;;;;16.33;5.45;;;5.20;86.10;;;;;;5117496;28;20028;-73
2023/03/03 09:39:19;;;;;;;12.25;5.43;;;5.20;85.90;;;;;;5099279;28;20052;-73
2023/03/03 09:42:12;;;;;;;15.95;6.45;;;5.20;86.00;;;;;;5117359;28;20020;-74
2023/03/03 09:45:11;;;;;;;17.10;5.68;;;5.20;85.90;;;;;;5117172;28;20028;-74
2023/03/03 09:47:54;;;;;;;15.50;5.47;;;5.30;86.00;;;;;;5117095;28;20081;-73
2023/03/03 09:50:23;;;;;;;16.92;6.25;;;5.20;86.30;;;;;;5117127;28;20034;-74
2023/03/03 09:53:14;;;;;;;10.93;5.35;;;5.30;86.00;;;;;;5117140;28;20016;-73
2023/03/03 09:56:02;;;;;;;11.57;5.07;;;5.30;86.60;;;;;;5116988;28;20399;-73
2023/03/03 09:58:44;;;;;;;18.02;5.80;;;5.30;86.40;;;;;;5115847;28;20479;-73
2023/03/03 10:01:16;;;;;;;21.55;6.88;;;5.30;86.50;;;;;;5117048;28;20024;-73
2023/03/03 10:03:48;;;;;;;19.80;6.80;;;5.40;86.30;;;;;;5115764;28;20051;-73
2023/03/03 10:06:36;;;;;;;18.52;6.70;;;5.40;86.20;;;;;;5116826;28;20091;-73
2023/03/03 10:09:36;;;;;;;17.25;5.78;;;5.50;86.40;;;;;;5116601;28;20103;-73
2023/03/03 10:12:24;;;;;;;16.20;5.95;;;5.50;86.70;;;;;;5116715;28;20062;-73
2023/03/03 10:15:20;;;;;;;19.83;6.80;;;5.50;86.50;;;;;;5116738;28;20036;-73
2023/03/03 10:17:53;;;;;;;16.20;5.75;;;5.60;86.30;;;;;;5116599;28;20024;-73
2023/03/03 10:20:22;;;;;;;16.63;6.35;;;5.60;86.20;;;;;;5116685;28;20031;-73
2023/03/03 10:23:14;;;;;;;23.67;7.13;;;5.60;86.20;;;;;;5116571;28;20051;-73
2023/03/03 10:25:49;;;;;;;14.90;6.10;;;5.70;87.60;;;;;;5116426;28;20021;-73
2023/03/03 10:28:53;;;;;;;19.10;6.90;;;5.80;86.50;;;;;;5116273;28;20050;-73
2023/03/03 10:31:18;;;;;;;16.98;6.43;;;5.80;85.90;;;;;;5115061;28;20051;-73
2023/03/03 10:33:53;;;;;;;15.88;6.30;;;5.90;85.70;;;;;;5116179;28;20024;-73
2023/03/03 10:36:37;;;;;;;16.92;6.88;;;6.00;85.50;;;;;;5115276;28;20028;-73
2023/03/03 10:39:03;;;;;;;18.80;6.05;;;6.00;85.20;;;;;;5116122;28;20050;-73
2023/03/03 10:41:28;;;;;;;17.65;6.63;;;6.10;85.00;;;;;;5114827;28;20028;-74
2023/03/03 10:44:31;;;;;;;15.68;6.45;;;6.10;84.80;;;;;;5115999;28;20035;-74
2023/03/03 10:46:57;;;;;;;;;;;6.20;84.80;;;;;;5116370;28;20032;-74
2023/03/03 10:49:38;;;;;;;16.55;5.85;;;6.20;84.70;;;;;;5115852;28;19979;-74
2023/03/03 10:52:24;;;;;;;17.10;6.80;;;6.20;84.60;;;;;;5115916;28;20016;-74
2023/03/03 10:54:56;;;;;;;16.30;6.43;;;6.20;84.40;;;;;;5116000;28;20042;-74
2023/03/03 10:57:51;;;;;;;18.75;6.82;;;6.20;84.40;;;;;;5115754;28;20024;-74
2023/03/03 11:00:23;;;;;;;18.90;6.68;;;6.20;84.30;;;;;;5114710;28;20032;-74
2023/03/03 11:02:58;;;;;;;15.90;5.97;;;6.20;84.60;;;;;;5114630;28;20038;-74
2023/03/03 11:05:29;;;;;;;19.13;7.20;;;6.30;85.40;;;;;;5115608;28;20039;-74
2023/03/03 11:08:02;;;;;;;17.55;6.53;;;6.30;84.50;;;;;;5114539;28;20047;-74
2023/03/03 11:10:46;;;;;;;;;;;6.30;84.20;;;;;;5115893;28;20024;-73
2023/03/03 11:13:31;;;;;;;15.75;5.72;;;6.40;84.30;;;;;;5115403;28;19904;-74
2023/03/03 11:16:36;;;;;;;19.63;6.00;;;6.40;84.10;;;;;;5115363;28;20023;-73
2023/03/03 11:19:24;;;;;;;16.77;6.63;;;6.50;84.30;;;;;;5115366;28;20024;-74
2023/03/03 11:22:12;;;;;;;17.13;6.30;;;6.60;83.80;;;;;;5115292;28;20012;-74
2023/03/03 11:24:53;;;;;;;18.83;6.70;;;6.60;83.40;;;;;;5115234;28;20028;-73
2023/03/03 11:27:52;;;;;;;14.68;6.03;;;6.70;83.50;;;;;;5115312;28;20023;-74
2023/03/03 11:30:21;;;;;;;16.48;5.97;;;6.80;83.40;;;;;;5115207;28;20044;-74
2023/03/03 11:32:46;;;;;;;15.73;6.38;;;6.90;82.90;;;;;;5114734;28;20584;-74
2023/03/03 11:35:21;;;;;;;15.45;6.13;;;6.80;82.50;;;;;;5114976;28;20024;-73
2023/03/03 11:37:47;;;;;;;15.95;6.65;;;6.90;82.50;;;;;;5115144;28;20035;-74
2023/03/03 11:40:19;;;;;;;13.73;5.80;;;7.00;82.90;;;;;;5113910;28;20024;-74
2023/03/03 11:43:00;;;;;;;15.85;6.32;;;7.10;82.20;;;;;;5115000;28;20020;-74
2023/03/03 11:45:33;;;;;;;15.40;5.78;;;7.20;82.00;;;;;;5114830;28;20028;-74
2023/03/03 11:48:11;;;;;;;20.25;6.20;;;7.30;81.70;;;;;;5114777;28;20028;-74
2023/03/03 11:51:13;;;;;;;17.33;7.10;;;7.40;81.50;;;;;;5114736;28;20024;-74
2023/03/03 11:53:47;;;;;;;17.00;5.78;;;7.60;80.40;;;;;;5083061;28;20061;-74
2023/03/03 11:56:41;;;;;;;15.27;5.72;;;7.60;80.70;;;;;;5114682;28;20103;-74
2023/03/03 11:59:19;;;;;;;16.35;7.03;;;7.70;81.50;;;;;;5114517;28;20021;-74
2023/03/03 12:02:13;;;;;;;14.43;6.10;;;8.00;80.70;;;;;;5113599;28;20054;-74
2023/03/03 12:04:45;;;;;;;16.35;6.25;;;8.10;79.80;;;;;;5114484;28;20020;-74
2023/03/03 12:07:35;;;;;;;16.65;6.18;;;8.20;79.70;;;;;;5114538;28;20076;-74
2023/03/03 12:10:33;;;;;;;12.35;5.47;;;8.20;79.30;;;;;;5113246;28;20024;-75
2023/03/03 12:13:04;;;;;;;15.80;6.25;;;8.30;79.10;;;;;;5114313;28;20024;-75
2023/03/03 12:15:36;;;;;;;12.65;5.82;;;8.40;79.20;;;;;;5114297;28;20024;-74
2023/03/03 12:18:32;;;;;;;12.35;5.43;;;8.40;78.30;;;;;;5114241;28;20046;-74
2023/03/03 12:21:19;;;;;;;15.85;5.95;;;8.50;77.50;;;;;;5114356;28;20027;-74
2023/03/03 12:23:48;;;;;;;15.10;6.20;;;8.50;77.40;;;;;;5114273;28;20024;-74
2023/03/03 12:26:26;;;;;;;13.07;5.57;;;8.60;77.30;;;;;;5114194;28;20073;-74
2023/03/03 12:29:24;;;;;;;11.38;4.95;;;8.70;77.20;;;;;;5113971;28;20028;-74
2023/03/03 12:32:20;;;;;;;13.20;4.97;;;8.80;76.30;;;;;;5113558;28;20384;-75
2023/03/03 12:35:03;;;;;;;11.85;5.15;;;9.00;76.90;;;;;;5114116;28;20092;-75
2023/03/03 12:38:02;;;;;;;12.25;5.20;;;9.00;75.30;;;;;;5113976;28;20425;-75
2023/03/03 12:40:39;;;;;;;12.30;5.85;;;9.10;75.40;;;;;;5114085;28;20051;-74
2023/03/03 12:43:27;;;;;;;12.82;5.18;;;9.20;75.30;;;;;;5112905;28;20028;-75
2023/03/03 12:46:21;;;;;;;14.82;5.55;;;9.20;75.00;;;;;;5113969;28;20111;-75
2023/03/03 12:48:47;;;;;;;11.02;5.15;;;9.20;74.90;;;;;;5113842;28;20028;-74
2023/03/03 12:51:50;;;;;;;12.05;5.63;;;9.30;75.20;;;;;;5113716;28;20021;-74
2023/03/03 12:54:28;;;;;;;;;;;9.50;74.10;;;;;;5114067;28;20080;-74
2023/03/03 12:57:13;;;;;;;11.50;5.05;;;9.40;73.60;;;;;;5113669;28;19926;-74
2023/03/03 13:00:08;;;;;;;12.23;5.18;;;9.50;74.60;;;;;;5113680;28;20030;-74
2023/03/03 13:02:43;;;;;;;11.98;5.10;;;9.60;74.10;;;;;;5113744;28;20035;-74
2023/03/03 13:05:09;;;;;;;8.40;4.25;;;9.60;73.10;;;;;;5112782;28;20021;-74
2023/03/03 13:07:45;;;;;;;11.20;5.13;;;9.70;73.60;;;;;;5113666;28;20432;-74
2023/03/03 13:10:34;;;;;;;10.27;4.75;;;9.70;73.00;;;;;;5113488;28;20024;-74
2023/03/03 13:13:05;;;;;;;11.63;5.63;;;9.80;73.00;;;;;;5113580;28;20051;-74
2023/03/03 13:15:38;;;;;;;12.32;5.82;;;9.90;72.00;;;;;;5113504;28;20028;-73